sensor_id;sensor_type;location;lat;lon;timestamp;temperature;humidity
35129;DHT22;21301;43.626;10.580;2022-10-16T00:01:10;15.80;99.90
35129;DHT22;21301;43.626;10.580;2022-10-16T00:03:37;15.80;99.90
35129;DHT22;21301;43.626;10.580;2022-10-16T00:06:04;15.80;99.90
35129;DHT22;21301;43.626;10.580;2022-10-16T00:08:30;15.90;99.90
35129;DHT22;21301;43.626;10.580;2022-10-16T00:11:01;15.90;99.90
35129;DHT22;21301;43.626;10.580;2022-10-16T00:13:27;15.90;99.90
35129;DHT22;21301;43.626;10.580;2022-10-16T00:15:55;15.90;99.90
35129;DHT22;21301;43.626;10.580;2022-10-16T00:18:22;15.90;99.90
35129;DHT22;21301;43.626;10.580;2022-10-16T00:20:48;16.00;99.90
35129;DHT22;21301;43.626;10.580;2022-10-16T00:23:14;15.90;99.90
35129;DHT22;21301;43.626;10.580;2022-10-16T00:25:39;15.90;99.90
35129;DHT22;21301;43.626;10.580;2022-10-16T00:28:05;15.90;99.90
35129;DHT22;21301;43.626;10.580;2022-10-16T00:30:31;15.90;99.90
35129;DHT22;21301;43.626;10.580;2022-10-16T00:32:57;16.00;99.90
35129;DHT22;21301;43.626;10.580;2022-10-16T00:35:22;16.00;99.90
35129;DHT22;21301;43.626;10.580;2022-10-16T00:37:49;16.00;99.90
35129;DHT22;21301;43.626;10.580;2022-10-16T00:40:14;16.00;99.90
35129;DHT22;21301;43.626;10.580;2022-10-16T00:42:40;16.10;99.90
35129;DHT22;21301;43.626;10.580;2022-10-16T00:45:08;16.10;99.90
35129;DHT22;21301;43.626;10.580;2022-10-16T00:47:38;16.10;99.90
35129;DHT22;21301;43.626;10.580;2022-10-16T00:50:22;16.20;99.90
35129;DHT22;21301;43.626;10.580;2022-10-16T00:52:50;16.10;99.90
35129;DHT22;21301;43.626;10.580;2022-10-16T00:55:17;16.10;99.90
35129;DHT22;21301;43.626;10.580;2022-10-16T00:57:43;16.10;99.90
35129;DHT22;21301;43.626;10.580;2022-10-16T01:00:12;16.10;99.90
35129;DHT22;21301;43.626;10.580;2022-10-16T01:02:38;16.10;99.90
35129;DHT22;21301;43.626;10.580;2022-10-16T01:05:04;16.00;99.90
35129;DHT22;21301;43.626;10.580;2022-10-16T01:12:58;15.90;99.90
35129;DHT22;21301;43.626;10.580;2022-10-16T01:15:26;15.80;99.90
35129;DHT22;21301;43.626;10.580;2022-10-16T01:21:06;15.90;99.90
35129;DHT22;21301;43.626;10.580;2022-10-16T01:29:03;15.90;99.90
35129;DHT22;21301;43.626;10.580;2022-10-16T01:31:33;15.90;99.90
35129;DHT22;21301;43.626;10.580;2022-10-16T01:34:07;15.90;99.90
35129;DHT22;21301;43.626;10.580;2022-10-16T01:36:38;15.90;99.90
35129;DHT22;21301;43.626;10.580;2022-10-16T01:39:07;15.90;99.90
35129;DHT22;21301;43.626;10.580;2022-10-16T01:41:39;15.90;99.90
35129;DHT22;21301;43.626;10.580;2022-10-16T01:44:12;15.90;99.90
35129;DHT22;21301;43.626;10.580;2022-10-16T01:46:42;15.90;99.90
35129;DHT22;21301;43.626;10.580;2022-10-16T01:49:09;15.90;99.90
35129;DHT22;21301;43.626;10.580;2022-10-16T01:51:37;15.90;99.90
35129;DHT22;21301;43.626;10.580;2022-10-16T01:54:04;15.90;99.90
35129;DHT22;21301;43.626;10.580;2022-10-16T01:56:31;15.90;99.90
35129;DHT22;21301;43.626;10.580;2022-10-16T01:59:11;15.90;99.90
35129;DHT22;21301;43.626;10.580;2022-10-16T02:01:41;15.90;99.90
35129;DHT22;21301;43.626;10.580;2022-10-16T02:04:16;15.90;99.90
35129;DHT22;21301;43.626;10.580;2022-10-16T02:06:42;15.90;99.90
35129;DHT22;21301;43.626;10.580;2022-10-16T02:09:08;15.80;99.90
35129;DHT22;21301;43.626;10.580;2022-10-16T02:11:35;15.80;99.90
35129;DHT22;21301;43.626;10.580;2022-10-16T02:14:07;15.80;99.90
35129;DHT22;21301;43.626;10.580;2022-10-16T02:16:43;15.80;99.90
35129;DHT22;21301;43.626;10.580;2022-10-16T02:19:15;15.80;99.90
35129;DHT22;21301;43.626;10.580;2022-10-16T02:21:44;15.90;99.90
35129;DHT22;21301;43.626;10.580;2022-10-16T02:26:59;15.90;99.90
35129;DHT22;21301;43.626;10.580;2022-10-16T02:29:27;15.90;99.90
35129;DHT22;21301;43.626;10.580;2022-10-16T02:31:58;15.90;99.90
35129;DHT22;21301;43.626;10.580;2022-10-16T02:34:27;15.90;99.90
35129;DHT22;21301;43.626;10.580;2022-10-16T02:36:55;16.00;99.90
35129;DHT22;21301;43.626;10.580;2022-10-16T02:39:22;16.00;99.90
35129;DHT22;21301;43.626;10.580;2022-10-16T02:41:48;16.00;99.90
35129;DHT22;21301;43.626;10.580;2022-10-16T02:44:13;16.00;99.90
35129;DHT22;21301;43.626;10.580;2022-10-16T02:46:39;16.00;99.90
35129;DHT22;21301;43.626;10.580;2022-10-16T02:49:05;16.00;99.90
35129;DHT22;21301;43.626;10.580;2022-10-16T02:51:31;16.00;99.90
35129;DHT22;21301;43.626;10.580;2022-10-16T02:53:56;16.00;99.90
35129;DHT22;21301;43.626;10.580;2022-10-16T02:56:22;16.00;99.90
35129;DHT22;21301;43.626;10.580;2022-10-16T02:58:48;16.00;99.90
35129;DHT22;21301;43.626;10.580;2022-10-16T03:01:14;16.00;99.90
35129;DHT22;21301;43.626;10.580;2022-10-16T03:03:42;16.00;99.90
35129;DHT22;21301;43.626;10.580;2022-10-16T03:06:08;15.90;99.90
35129;DHT22;21301;43.626;10.580;2022-10-16T03:08:34;15.90;99.90
35129;DHT22;21301;43.626;10.580;2022-10-16T03:11:00;15.90;99.90
35129;DHT22;21301;43.626;10.580;2022-10-16T03:13:27;15.90;99.90
35129;DHT22;21301;43.626;10.580;2022-10-16T03:15:53;15.80;99.90
35129;DHT22;21301;43.626;10.580;2022-10-16T03:18:19;15.80;99.90
35129;DHT22;21301;43.626;10.580;2022-10-16T03:20:45;15.80;99.90
35129;DHT22;21301;43.626;10.580;2022-10-16T03:23:11;15.80;99.90
35129;DHT22;21301;43.626;10.580;2022-10-16T03:25:37;15.80;99.90
35129;DHT22;21301;43.626;10.580;2022-10-16T03:28:03;15.80;99.90
35129;DHT22;21301;43.626;10.580;2022-10-16T03:30:28;15.80;99.90
35129;DHT22;21301;43.626;10.580;2022-10-16T03:32:54;15.80;99.90
35129;DHT22;21301;43.626;10.580;2022-10-16T03:35:21;15.80;99.90
35129;DHT22;21301;43.626;10.580;2022-10-16T03:37:47;15.70;99.90
35129;DHT22;21301;43.626;10.580;2022-10-16T03:40:13;15.60;99.90
35129;DHT22;21301;43.626;10.580;2022-10-16T03:42:39;15.60;99.90
35129;DHT22;21301;43.626;10.580;2022-10-16T03:45:05;15.60;99.90
35129;DHT22;21301;43.626;10.580;2022-10-16T03:47:31;15.60;99.90
35129;DHT22;21301;43.626;10.580;2022-10-16T03:49:59;15.60;99.90
35129;DHT22;21301;43.626;10.580;2022-10-16T03:52:24;15.70;99.90
35129;DHT22;21301;43.626;10.580;2022-10-16T03:54:50;15.80;99.90
35129;DHT22;21301;43.626;10.580;2022-10-16T03:57:16;15.80;99.90
35129;DHT22;21301;43.626;10.580;2022-10-16T03:59:42;15.80;99.90
35129;DHT22;21301;43.626;10.580;2022-10-16T04:02:09;15.80;99.90
35129;DHT22;21301;43.626;10.580;2022-10-16T04:04:34;15.80;99.90
35129;DHT22;21301;43.626;10.580;2022-10-16T04:07:00;15.80;99.90
35129;DHT22;21301;43.626;10.580;2022-10-16T04:09:26;15.80;99.90
35129;DHT22;21301;43.626;10.580;2022-10-16T04:11:52;15.90;99.90
35129;DHT22;21301;43.626;10.580;2022-10-16T04:14:18;15.90;99.90
35129;DHT22;21301;43.626;10.580;2022-10-16T04:16:43;15.90;99.90
35129;DHT22;21301;43.626;10.580;2022-10-16T04:19:10;15.90;99.90
35129;DHT22;21301;43.626;10.580;2022-10-16T04:21:37;15.90;99.90
35129;DHT22;21301;43.626;10.580;2022-10-16T04:24:03;15.80;99.90
35129;DHT22;21301;43.626;10.580;2022-10-16T04:26:29;15.80;99.90
35129;DHT22;21301;43.626;10.580;2022-10-16T04:28:55;15.80;99.90
35129;DHT22;21301;43.626;10.580;2022-10-16T04:31:21;15.80;99.90
35129;DHT22;21301;43.626;10.580;2022-10-16T04:33:47;15.80;99.90
35129;DHT22;21301;43.626;10.580;2022-10-16T04:36:13;15.70;99.90
35129;DHT22;21301;43.626;10.580;2022-10-16T04:38:39;15.70;99.90
35129;DHT22;21301;43.626;10.580;2022-10-16T04:41:06;15.70;99.90
35129;DHT22;21301;43.626;10.580;2022-10-16T04:43:33;15.70;99.90
35129;DHT22;21301;43.626;10.580;2022-10-16T04:45:59;15.70;99.90
35129;DHT22;21301;43.626;10.580;2022-10-16T04:48:25;15.60;99.90
35129;DHT22;21301;43.626;10.580;2022-10-16T04:50:50;15.70;99.90
35129;DHT22;21301;43.626;10.580;2022-10-16T04:53:16;15.60;99.90
35129;DHT22;21301;43.626;10.580;2022-10-16T04:55:42;15.70;99.90
35129;DHT22;21301;43.626;10.580;2022-10-16T04:58:09;15.70;99.90
35129;DHT22;21301;43.626;10.580;2022-10-16T05:00:35;15.60;99.90
35129;DHT22;21301;43.626;10.580;2022-10-16T05:03:01;15.60;99.90
35129;DHT22;21301;43.626;10.580;2022-10-16T05:05:27;15.60;99.90
35129;DHT22;21301;43.626;10.580;2022-10-16T05:07:54;15.50;99.90
35129;DHT22;21301;43.626;10.580;2022-10-16T05:10:20;15.50;99.90
35129;DHT22;21301;43.626;10.580;2022-10-16T05:12:46;15.50;99.90
35129;DHT22;21301;43.626;10.580;2022-10-16T05:15:12;15.50;99.90
35129;DHT22;21301;43.626;10.580;2022-10-16T05:17:38;15.40;99.90
35129;DHT22;21301;43.626;10.580;2022-10-16T05:20:04;15.40;99.90
35129;DHT22;21301;43.626;10.580;2022-10-16T05:22:30;15.40;99.90
35129;DHT22;21301;43.626;10.580;2022-10-16T05:24:56;15.40;99.90
35129;DHT22;21301;43.626;10.580;2022-10-16T05:27:22;15.40;99.90
35129;DHT22;21301;43.626;10.580;2022-10-16T05:29:48;15.40;99.90
35129;DHT22;21301;43.626;10.580;2022-10-16T05:32:18;15.50;99.90
35129;DHT22;21301;43.626;10.580;2022-10-16T05:34:44;15.50;99.90
35129;DHT22;21301;43.626;10.580;2022-10-16T05:37:11;15.50;99.90
35129;DHT22;21301;43.626;10.580;2022-10-16T05:39:38;15.50;99.90
35129;DHT22;21301;43.626;10.580;2022-10-16T05:42:04;15.50;99.90
35129;DHT22;21301;43.626;10.580;2022-10-16T05:44:33;15.50;99.90
35129;DHT22;21301;43.626;10.580;2022-10-16T05:46:59;15.50;99.90
35129;DHT22;21301;43.626;10.580;2022-10-16T05:49:24;15.50;99.90
35129;DHT22;21301;43.626;10.580;2022-10-16T05:51:50;15.50;99.90
35129;DHT22;21301;43.626;10.580;2022-10-16T05:54:16;15.60;99.90
35129;DHT22;21301;43.626;10.580;2022-10-16T05:56:42;15.60;99.90
35129;DHT22;21301;43.626;10.580;2022-10-16T05:59:08;15.60;99.90
35129;DHT22;21301;43.626;10.580;2022-10-16T06:01:34;15.70;99.90
35129;DHT22;21301;43.626;10.580;2022-10-16T06:04:00;15.70;99.90
35129;DHT22;21301;43.626;10.580;2022-10-16T06:06:27;15.80;99.90
35129;DHT22;21301;43.626;10.580;2022-10-16T06:08:55;15.90;99.90
35129;DHT22;21301;43.626;10.580;2022-10-16T06:11:25;15.80;99.90
35129;DHT22;21301;43.626;10.580;2022-10-16T06:13:56;16.00;99.90
35129;DHT22;21301;43.626;10.580;2022-10-16T06:16:24;16.30;99.90
35129;DHT22;21301;43.626;10.580;2022-10-16T06:18:54;16.30;99.90
35129;DHT22;21301;43.626;10.580;2022-10-16T06:21:23;16.20;99.90
35129;DHT22;21301;43.626;10.580;2022-10-16T06:23:53;16.20;99.90
35129;DHT22;21301;43.626;10.580;2022-10-16T06:26:21;16.20;99.90
35129;DHT22;21301;43.626;10.580;2022-10-16T06:28:48;16.20;99.90
35129;DHT22;21301;43.626;10.580;2022-10-16T06:31:15;16.20;99.90
35129;DHT22;21301;43.626;10.580;2022-10-16T06:33:41;16.30;99.90
35129;DHT22;21301;43.626;10.580;2022-10-16T06:36:09;16.30;99.90
35129;DHT22;21301;43.626;10.580;2022-10-16T06:38:35;16.40;99.90
35129;DHT22;21301;43.626;10.580;2022-10-16T06:41:01;16.40;99.90
35129;DHT22;21301;43.626;10.580;2022-10-16T06:43:29;16.40;99.90
35129;DHT22;21301;43.626;10.580;2022-10-16T06:45:59;16.50;99.90
35129;DHT22;21301;43.626;10.580;2022-10-16T06:48:25;16.50;99.90
35129;DHT22;21301;43.626;10.580;2022-10-16T06:51:04;16.50;99.90
35129;DHT22;21301;43.626;10.580;2022-10-16T06:53:33;16.70;99.90
35129;DHT22;21301;43.626;10.580;2022-10-16T06:56:10;16.70;99.90
35129;DHT22;21301;43.626;10.580;2022-10-16T06:58:36;16.70;99.90
35129;DHT22;21301;43.626;10.580;2022-10-16T07:01:03;16.80;99.90
35129;DHT22;21301;43.626;10.580;2022-10-16T07:03:29;16.80;99.90
35129;DHT22;21301;43.626;10.580;2022-10-16T07:05:55;16.80;99.90
35129;DHT22;21301;43.626;10.580;2022-10-16T07:08:20;16.90;99.90
35129;DHT22;21301;43.626;10.580;2022-10-16T07:10:46;17.00;99.90
35129;DHT22;21301;43.626;10.580;2022-10-16T07:13:12;17.10;99.90
35129;DHT22;21301;43.626;10.580;2022-10-16T07:15:41;17.10;99.90
35129;DHT22;21301;43.626;10.580;2022-10-16T07:18:07;17.10;99.90
35129;DHT22;21301;43.626;10.580;2022-10-16T07:20:33;17.10;99.90
35129;DHT22;21301;43.626;10.580;2022-10-16T07:22:59;17.30;99.90
35129;DHT22;21301;43.626;10.580;2022-10-16T07:25:25;17.30;99.90
35129;DHT22;21301;43.626;10.580;2022-10-16T07:27:51;17.40;99.90
35129;DHT22;21301;43.626;10.580;2022-10-16T07:30:16;17.60;99.90
35129;DHT22;21301;43.626;10.580;2022-10-16T07:32:42;17.60;99.90
35129;DHT22;21301;43.626;10.580;2022-10-16T07:35:08;17.90;99.90
35129;DHT22;21301;43.626;10.580;2022-10-16T07:37:34;17.90;99.90
35129;DHT22;21301;43.626;10.580;2022-10-16T07:40:00;18.00;99.90
35129;DHT22;21301;43.626;10.580;2022-10-16T07:42:27;18.10;99.90
35129;DHT22;21301;43.626;10.580;2022-10-16T07:44:52;18.40;99.90
35129;DHT22;21301;43.626;10.580;2022-10-16T07:47:18;19.00;99.90
35129;DHT22;21301;43.626;10.580;2022-10-16T07:49:44;19.30;99.90
35129;DHT22;21301;43.626;10.580;2022-10-16T07:52:10;19.20;99.90
35129;DHT22;21301;43.626;10.580;2022-10-16T07:54:36;19.30;99.90
35129;DHT22;21301;43.626;10.580;2022-10-16T07:57:01;19.40;99.90
35129;DHT22;21301;43.626;10.580;2022-10-16T07:59:27;19.30;99.90
35129;DHT22;21301;43.626;10.580;2022-10-16T08:01:53;19.20;99.90
35129;DHT22;21301;43.626;10.580;2022-10-16T08:04:19;19.30;99.90
35129;DHT22;21301;43.626;10.580;2022-10-16T08:06:44;19.30;99.90
35129;DHT22;21301;43.626;10.580;2022-10-16T08:09:10;19.50;99.90
35129;DHT22;21301;43.626;10.580;2022-10-16T08:11:36;19.60;99.90
35129;DHT22;21301;43.626;10.580;2022-10-16T08:14:02;19.90;99.90
35129;DHT22;21301;43.626;10.580;2022-10-16T08:16:28;20.00;99.90
35129;DHT22;21301;43.626;10.580;2022-10-16T08:18:53;19.90;99.90
35129;DHT22;21301;43.626;10.580;2022-10-16T08:21:21;19.80;99.90
35129;DHT22;21301;43.626;10.580;2022-10-16T08:23:49;20.10;99.90
35129;DHT22;21301;43.626;10.580;2022-10-16T08:26:15;20.20;99.90
35129;DHT22;21301;43.626;10.580;2022-10-16T08:28:41;20.30;99.90
35129;DHT22;21301;43.626;10.580;2022-10-16T08:31:12;20.40;99.90
35129;DHT22;21301;43.626;10.580;2022-10-16T08:33:40;20.40;99.90
35129;DHT22;21301;43.626;10.580;2022-10-16T08:36:07;20.30;99.90
35129;DHT22;21301;43.626;10.580;2022-10-16T08:38:33;20.60;99.90
35129;DHT22;21301;43.626;10.580;2022-10-16T08:41:20;20.80;99.90
35129;DHT22;21301;43.626;10.580;2022-10-16T08:47:06;21.00;99.90
35129;DHT22;21301;43.626;10.580;2022-10-16T08:49:37;21.00;99.90
35129;DHT22;21301;43.626;10.580;2022-10-16T08:52:11;21.00;99.90
35129;DHT22;21301;43.626;10.580;2022-10-16T08:54:42;21.10;99.90
35129;DHT22;21301;43.626;10.580;2022-10-16T08:57:20;21.40;99.90
35129;DHT22;21301;43.626;10.580;2022-10-16T08:59:46;21.50;99.90
35129;DHT22;21301;43.626;10.580;2022-10-16T09:05:37;22.50;99.90
35129;DHT22;21301;43.626;10.580;2022-10-16T09:11:01;22.20;99.90
35129;DHT22;21301;43.626;10.580;2022-10-16T09:13:47;22.50;99.90
35129;DHT22;21301;43.626;10.580;2022-10-16T09:16:36;22.60;99.90
35129;DHT22;21301;43.626;10.580;2022-10-16T09:21:55;22.70;99.90
35129;DHT22;21301;43.626;10.580;2022-10-16T09:24:24;22.90;99.90
35129;DHT22;21301;43.626;10.580;2022-10-16T09:26:50;23.10;99.90
35129;DHT22;21301;43.626;10.580;2022-10-16T09:29:19;23.20;99.90
35129;DHT22;21301;43.626;10.580;2022-10-16T09:31:46;23.40;99.90
35129;DHT22;21301;43.626;10.580;2022-10-16T09:34:31;23.60;99.90
35129;DHT22;21301;43.626;10.580;2022-10-16T09:36:59;23.60;99.90
35129;DHT22;21301;43.626;10.580;2022-10-16T09:39:25;24.00;99.90
35129;DHT22;21301;43.626;10.580;2022-10-16T09:41:51;23.90;99.90
35129;DHT22;21301;43.626;10.580;2022-10-16T09:44:37;24.10;99.90
35129;DHT22;21301;43.626;10.580;2022-10-16T09:49:36;24.60;99.90
35129;DHT22;21301;43.626;10.580;2022-10-16T09:52:14;24.50;99.90
35129;DHT22;21301;43.626;10.580;2022-10-16T09:57:19;24.60;99.90
35129;DHT22;21301;43.626;10.580;2022-10-16T09:59:53;24.50;99.90
35129;DHT22;21301;43.626;10.580;2022-10-16T10:05:00;24.80;99.90
35129;DHT22;21301;43.626;10.580;2022-10-16T10:07:35;24.70;99.90
35129;DHT22;21301;43.626;10.580;2022-10-16T10:10:04;24.70;99.90
35129;DHT22;21301;43.626;10.580;2022-10-16T10:12:32;24.70;99.90
35129;DHT22;21301;43.626;10.580;2022-10-16T10:15:13;24.70;99.90
35129;DHT22;21301;43.626;10.580;2022-10-16T10:20:36;24.60;99.90
35129;DHT22;21301;43.626;10.580;2022-10-16T10:23:21;24.70;99.90
35129;DHT22;21301;43.626;10.580;2022-10-16T10:36:41;25.20;99.90
35129;DHT22;21301;43.626;10.580;2022-10-16T10:39:22;25.80;99.90
35129;DHT22;21301;43.626;10.580;2022-10-16T10:42:15;25.90;99.90
35129;DHT22;21301;43.626;10.580;2022-10-16T10:51:12;25.70;99.90
35129;DHT22;21301;43.626;10.580;2022-10-16T10:56:27;25.50;99.90
35129;DHT22;21301;43.626;10.580;2022-10-16T11:02:00;25.30;99.90
35129;DHT22;21301;43.626;10.580;2022-10-16T11:07:23;24.50;99.90
35129;DHT22;21301;43.626;10.580;2022-10-16T11:10:25;24.60;99.90
35129;DHT22;21301;43.626;10.580;2022-10-16T11:15:57;24.60;99.90
35129;DHT22;21301;43.626;10.580;2022-10-16T11:18:55;25.20;99.90
35129;DHT22;21301;43.626;10.580;2022-10-16T11:21:23;25.60;99.90
35129;DHT22;21301;43.626;10.580;2022-10-16T11:23:57;25.80;99.90
35129;DHT22;21301;43.626;10.580;2022-10-16T11:29:58;25.60;99.90
35129;DHT22;21301;43.626;10.580;2022-10-16T11:36:00;25.80;99.90
35129;DHT22;21301;43.626;10.580;2022-10-16T11:41:48;25.80;99.90
35129;DHT22;21301;43.626;10.580;2022-10-16T11:46:52;25.80;99.90
35129;DHT22;21301;43.626;10.580;2022-10-16T11:49:26;26.10;99.90
35129;DHT22;21301;43.626;10.580;2022-10-16T11:54:49;26.40;99.90
35129;DHT22;21301;43.626;10.580;2022-10-16T11:57:24;26.20;99.90
35129;DHT22;21301;43.626;10.580;2022-10-16T12:08:08;25.50;99.90
35129;DHT22;21301;43.626;10.580;2022-10-16T12:10:37;25.30;99.90
35129;DHT22;21301;43.626;10.580;2022-10-16T12:13:25;25.40;99.90
35129;DHT22;21301;43.626;10.580;2022-10-16T12:15:50;25.50;99.90
35129;DHT22;21301;43.626;10.580;2022-10-16T12:18:24;25.20;99.90
35129;DHT22;21301;43.626;10.580;2022-10-16T12:21:00;25.20;99.90
35129;DHT22;21301;43.626;10.580;2022-10-16T12:23:37;25.20;99.90
35129;DHT22;21301;43.626;10.580;2022-10-16T12:26:26;25.20;99.90
35129;DHT22;21301;43.626;10.580;2022-10-16T12:28:53;24.90;99.90
35129;DHT22;21301;43.626;10.580;2022-10-16T12:31:19;24.70;99.90
35129;DHT22;21301;43.626;10.580;2022-10-16T12:34:02;24.70;99.90
35129;DHT22;21301;43.626;10.580;2022-10-16T12:36:35;24.60;99.90
35129;DHT22;21301;43.626;10.580;2022-10-16T12:39:01;24.50;99.90
35129;DHT22;21301;43.626;10.580;2022-10-16T12:41:33;24.50;99.90
35129;DHT22;21301;43.626;10.580;2022-10-16T12:44:00;24.70;99.90
35129;DHT22;21301;43.626;10.580;2022-10-16T12:52:22;24.70;99.90
35129;DHT22;21301;43.626;10.580;2022-10-16T12:54:49;24.90;99.90
35129;DHT22;21301;43.626;10.580;2022-10-16T12:57:29;24.70;99.90
35129;DHT22;21301;43.626;10.580;2022-10-16T13:02:54;24.90;99.90
35129;DHT22;21301;43.626;10.580;2022-10-16T13:05:25;24.80;99.90
35129;DHT22;21301;43.626;10.580;2022-10-16T13:08:09;25.10;99.90
35129;DHT22;21301;43.626;10.580;2022-10-16T13:13:26;24.90;99.90
35129;DHT22;21301;43.626;10.580;2022-10-16T13:27:07;25.40;99.90
35129;DHT22;21301;43.626;10.580;2022-10-16T13:29:38;25.50;99.90
35129;DHT22;21301;43.626;10.580;2022-10-16T13:32:11;25.30;99.90
35129;DHT22;21301;43.626;10.580;2022-10-16T13:34:48;25.40;99.90
35129;DHT22;21301;43.626;10.580;2022-10-16T13:37:25;25.40;99.90
35129;DHT22;21301;43.626;10.580;2022-10-16T13:39:51;25.50;99.90
35129;DHT22;21301;43.626;10.580;2022-10-16T13:42:28;25.70;99.90
35129;DHT22;21301;43.626;10.580;2022-10-16T13:44:55;25.70;99.90
35129;DHT22;21301;43.626;10.580;2022-10-16T13:47:27;25.50;99.90
35129;DHT22;21301;43.626;10.580;2022-10-16T13:50:13;25.40;99.90
35129;DHT22;21301;43.626;10.580;2022-10-16T13:52:39;25.60;99.90
35129;DHT22;21301;43.626;10.580;2022-10-16T13:55:17;25.70;99.90
35129;DHT22;21301;43.626;10.580;2022-10-16T13:57:43;25.50;99.90
35129;DHT22;21301;43.626;10.580;2022-10-16T14:02:51;25.60;99.90
35129;DHT22;21301;43.626;10.580;2022-10-16T14:05:18;25.70;99.90
35129;DHT22;21301;43.626;10.580;2022-10-16T14:07:49;25.60;99.90
35129;DHT22;21301;43.626;10.580;2022-10-16T14:10:47;25.40;99.90
35129;DHT22;21301;43.626;10.580;2022-10-16T14:13:17;25.10;99.90
35129;DHT22;21301;43.626;10.580;2022-10-16T14:15:47;25.00;99.90
35129;DHT22;21301;43.626;10.580;2022-10-16T14:18:25;25.10;99.90
35129;DHT22;21301;43.626;10.580;2022-10-16T14:20:53;25.20;99.90
35129;DHT22;21301;43.626;10.580;2022-10-16T14:23:30;25.10;99.90
35129;DHT22;21301;43.626;10.580;2022-10-16T14:26:26;25.00;99.90
35129;DHT22;21301;43.626;10.580;2022-10-16T14:29:14;24.90;99.90
35129;DHT22;21301;43.626;10.580;2022-10-16T14:31:40;24.60;99.90
35129;DHT22;21301;43.626;10.580;2022-10-16T14:34:24;24.70;99.90
35129;DHT22;21301;43.626;10.580;2022-10-16T14:36:50;24.60;99.90
35129;DHT22;21301;43.626;10.580;2022-10-16T14:39:21;24.50;99.90
35129;DHT22;21301;43.626;10.580;2022-10-16T14:41:50;24.50;99.90
35129;DHT22;21301;43.626;10.580;2022-10-16T14:44:18;24.20;99.90
35129;DHT22;21301;43.626;10.580;2022-10-16T14:46:45;24.00;99.90
35129;DHT22;21301;43.626;10.580;2022-10-16T14:51:41;23.90;99.90
35129;DHT22;21301;43.626;10.580;2022-10-16T14:54:09;23.90;99.90
35129;DHT22;21301;43.626;10.580;2022-10-16T14:56:47;24.10;99.90
35129;DHT22;21301;43.626;10.580;2022-10-16T14:59:27;24.10;99.90
35129;DHT22;21301;43.626;10.580;2022-10-16T15:01:54;24.10;99.90
35129;DHT22;21301;43.626;10.580;2022-10-16T15:04:20;23.90;99.90
35129;DHT22;21301;43.626;10.580;2022-10-16T15:06:46;23.80;99.90
35129;DHT22;21301;43.626;10.580;2022-10-16T15:09:12;23.70;99.90
35129;DHT22;21301;43.626;10.580;2022-10-16T15:11:38;23.80;99.90
35129;DHT22;21301;43.626;10.580;2022-10-16T15:14:04;23.80;99.90
35129;DHT22;21301;43.626;10.580;2022-10-16T15:16:31;23.70;99.90
35129;DHT22;21301;43.626;10.580;2022-10-16T15:18:57;23.70;99.90
35129;DHT22;21301;43.626;10.580;2022-10-16T15:21:30;23.60;99.90
35129;DHT22;21301;43.626;10.580;2022-10-16T15:23:56;23.70;99.90
35129;DHT22;21301;43.626;10.580;2022-10-16T15:26:24;23.60;99.90
35129;DHT22;21301;43.626;10.580;2022-10-16T15:28:50;23.60;99.90
35129;DHT22;21301;43.626;10.580;2022-10-16T15:31:16;23.50;99.90
35129;DHT22;21301;43.626;10.580;2022-10-16T15:33:42;23.40;99.90
35129;DHT22;21301;43.626;10.580;2022-10-16T15:36:07;23.40;99.90
35129;DHT22;21301;43.626;10.580;2022-10-16T15:38:33;23.30;99.90
35129;DHT22;21301;43.626;10.580;2022-10-16T15:40:59;23.30;99.90
35129;DHT22;21301;43.626;10.580;2022-10-16T15:43:25;23.30;99.90
35129;DHT22;21301;43.626;10.580;2022-10-16T15:46:02;23.10;99.90
35129;DHT22;21301;43.626;10.580;2022-10-16T15:48:29;22.90;99.90
35129;DHT22;21301;43.626;10.580;2022-10-16T15:50:55;22.70;99.90
35129;DHT22;21301;43.626;10.580;2022-10-16T15:53:22;22.70;99.90
35129;DHT22;21301;43.626;10.580;2022-10-16T15:55:48;22.80;99.90
35129;DHT22;21301;43.626;10.580;2022-10-16T15:58:14;22.90;99.90
35129;DHT22;21301;43.626;10.580;2022-10-16T16:00:40;22.90;99.90
35129;DHT22;21301;43.626;10.580;2022-10-16T16:03:06;22.90;99.90
35129;DHT22;21301;43.626;10.580;2022-10-16T16:05:32;22.80;99.90
35129;DHT22;21301;43.626;10.580;2022-10-16T16:07:58;22.70;99.90
35129;DHT22;21301;43.626;10.580;2022-10-16T16:10:25;22.70;99.90
35129;DHT22;21301;43.626;10.580;2022-10-16T16:12:50;22.70;99.90
35129;DHT22;21301;43.626;10.580;2022-10-16T16:15:22;22.60;99.90
35129;DHT22;21301;43.626;10.580;2022-10-16T16:17:48;22.70;99.90
35129;DHT22;21301;43.626;10.580;2022-10-16T16:20:14;22.60;99.90
35129;DHT22;21301;43.626;10.580;2022-10-16T16:22:40;22.40;99.90
35129;DHT22;21301;43.626;10.580;2022-10-16T16:25:07;22.30;99.90
35129;DHT22;21301;43.626;10.580;2022-10-16T16:27:33;22.20;99.90
35129;DHT22;21301;43.626;10.580;2022-10-16T16:30:01;22.20;99.90
35129;DHT22;21301;43.626;10.580;2022-10-16T16:32:29;22.20;99.90
35129;DHT22;21301;43.626;10.580;2022-10-16T16:34:55;22.30;99.90
35129;DHT22;21301;43.626;10.580;2022-10-16T16:37:20;22.20;99.90
35129;DHT22;21301;43.626;10.580;2022-10-16T16:39:46;22.20;99.90
35129;DHT22;21301;43.626;10.580;2022-10-16T16:42:12;21.90;99.90
35129;DHT22;21301;43.626;10.580;2022-10-16T16:44:38;21.70;99.90
35129;DHT22;21301;43.626;10.580;2022-10-16T16:47:04;21.60;99.90
35129;DHT22;21301;43.626;10.580;2022-10-16T16:49:30;21.50;99.90
35129;DHT22;21301;43.626;10.580;2022-10-16T16:51:56;21.50;99.90
35129;DHT22;21301;43.626;10.580;2022-10-16T16:54:22;21.50;99.90
35129;DHT22;21301;43.626;10.580;2022-10-16T16:56:47;21.50;99.90
35129;DHT22;21301;43.626;10.580;2022-10-16T16:59:18;21.30;99.90
35129;DHT22;21301;43.626;10.580;2022-10-16T17:01:45;21.30;99.90
35129;DHT22;21301;43.626;10.580;2022-10-16T17:04:11;21.40;99.90
35129;DHT22;21301;43.626;10.580;2022-10-16T17:06:37;21.40;99.90
35129;DHT22;21301;43.626;10.580;2022-10-16T17:09:05;21.40;99.90
35129;DHT22;21301;43.626;10.580;2022-10-16T17:11:32;21.40;99.90
35129;DHT22;21301;43.626;10.580;2022-10-16T17:13:59;21.20;99.90
35129;DHT22;21301;43.626;10.580;2022-10-16T17:16:28;21.20;99.90
35129;DHT22;21301;43.626;10.580;2022-10-16T17:18:54;21.30;99.90
35129;DHT22;21301;43.626;10.580;2022-10-16T17:21:20;21.30;99.90
35129;DHT22;21301;43.626;10.580;2022-10-16T17:23:47;21.40;99.90
35129;DHT22;21301;43.626;10.580;2022-10-16T17:26:16;21.30;99.90